Terminal Aerodrome Forecast
Issued by NWS

Home | Current Version | Previous Version | Text Only | Print | Product List | Glossary On
Versions: 1 2 3 4 5 6 7 8 9 10 11 12 13 14 15 16 17 18 19 20
000
FTUS41 KILN 290500
TAFLCK
TAF
KLCK 290528Z 2906/3006 15005KT P6SM BKN120
     FM291600 19012G22KT P6SM BKN040
     FM291900 20014G22KT P6SM OVC025
     FM300000 20014KT P6SM -DZ SCT008 OVC015
     FM300500 20012KT 5SM -RA BR SCT006 OVC010=

USA.gov is the U.S. government's official web portal to all federal, state and local government web resources and services.